sensor_id;sensor_type;location;lat;lon;timestamp;P1;durP1;ratioP1;P2;durP2;ratioP2
58992;SDS011;44782;0.000;0.000;2023-08-07T00:00:15;1.10;;;1.10;;
58992;SDS011;44782;0.000;0.000;2023-08-07T00:02:31;1.40;;;1.30;;
58992;SDS011;44782;0.000;0.000;2023-08-07T00:04:46;1.05;;;1.05;;
58992;SDS011;44782;0.000;0.000;2023-08-07T00:07:02;1.30;;;1.20;;
58992;SDS011;44782;0.000;0.000;2023-08-07T00:09:18;1.40;;;1.30;;
58992;SDS011;44782;0.000;0.000;2023-08-07T00:11:33;1.17;;;1.15;;
58992;SDS011;44782;0.000;0.000;2023-08-07T00:13:49;1.60;;;1.50;;
58992;SDS011;44782;0.000;0.000;2023-08-07T00:16:05;1.00;;;1.00;;
58992;SDS011;44782;0.000;0.000;2023-08-07T00:18:20;1.38;;;1.30;;
58992;SDS011;44782;0.000;0.000;2023-08-07T00:20:36;1.10;;;1.10;;
58992;SDS011;44782;0.000;0.000;2023-08-07T00:22:52;1.00;;;1.00;;
58992;SDS011;44782;0.000;0.000;2023-08-07T00:25:07;1.40;;;1.30;;
58992;SDS011;44782;0.000;0.000;2023-08-07T00:27:23;1.25;;;1.15;;
58992;SDS011;44782;0.000;0.000;2023-08-07T00:29:39;1.10;;;1.10;;
58992;SDS011;44782;0.000;0.000;2023-08-07T00:31:54;1.30;;;1.20;;
58992;SDS011;44782;0.000;0.000;2023-08-07T00:34:10;1.33;;;1.23;;
58992;SDS011;44782;0.000;0.000;2023-08-07T00:36:26;1.10;;;1.10;;
58992;SDS011;44782;0.000;0.000;2023-08-07T00:38:43;1.35;;;1.25;;
58992;SDS011;44782;0.000;0.000;2023-08-07T00:40:59;1.38;;;1.20;;
58992;SDS011;44782;0.000;0.000;2023-08-07T00:43:15;1.20;;;1.15;;
58992;SDS011;44782;0.000;0.000;2023-08-07T00:45:32;1.00;;;1.00;;
58992;SDS011;44782;0.000;0.000;2023-08-07T00:47:52;1.05;;;1.05;;
58992;SDS011;44782;0.000;0.000;2023-08-07T00:50:08;1.25;;;1.15;;
58992;SDS011;44782;0.000;0.000;2023-08-07T00:52:24;1.40;;;1.30;;
58992;SDS011;44782;0.000;0.000;2023-08-07T00:54:40;1.20;;;1.20;;
58992;SDS011;44782;0.000;0.000;2023-08-07T00:56:58;2.20;;;1.27;;
58992;SDS011;44782;0.000;0.000;2023-08-07T00:59:22;1.13;;;1.00;;
58992;SDS011;44782;0.000;0.000;2023-08-07T01:01:37;1.40;;;1.30;;
58992;SDS011;44782;0.000;0.000;2023-08-07T01:03:53;1.40;;;1.30;;
58992;SDS011;44782;0.000;0.000;2023-08-07T01:06:09;1.20;;;1.10;;
58992;SDS011;44782;0.000;0.000;2023-08-07T01:08:24;1.30;;;1.20;;
58992;SDS011;44782;0.000;0.000;2023-08-07T01:13:08;1.40;;;1.30;;
58992;SDS011;44782;0.000;0.000;2023-08-07T01:15:45;1.40;;;1.30;;
58992;SDS011;44782;0.000;0.000;2023-08-07T01:18:03;1.27;;;1.20;;
58992;SDS011;44782;0.000;0.000;2023-08-07T01:20:22;1.33;;;1.20;;
58992;SDS011;44782;0.000;0.000;2023-08-07T01:22:38;1.63;;;1.30;;
58992;SDS011;44782;0.000;0.000;2023-08-07T01:24:53;1.30;;;1.20;;
58992;SDS011;44782;0.000;0.000;2023-08-07T01:29:36;1.30;;;1.20;;
58992;SDS011;44782;0.000;0.000;2023-08-07T01:32:02;1.33;;;1.23;;
58992;SDS011;44782;0.000;0.000;2023-08-07T01:34:20;1.30;;;1.20;;
58992;SDS011;44782;0.000;0.000;2023-08-07T01:36:39;1.27;;;1.15;;
58992;SDS011;44782;0.000;0.000;2023-08-07T01:38:57;1.50;;;1.40;;
58992;SDS011;44782;0.000;0.000;2023-08-07T01:41:14;1.30;;;1.20;;
58992;SDS011;44782;0.000;0.000;2023-08-07T01:43:30;1.40;;;1.30;;
58992;SDS011;44782;0.000;0.000;2023-08-07T01:45:47;1.30;;;1.20;;
58992;SDS011;44782;0.000;0.000;2023-08-07T01:48:02;1.37;;;1.30;;
58992;SDS011;44782;0.000;0.000;2023-08-07T01:50:19;1.13;;;1.10;;
58992;SDS011;44782;0.000;0.000;2023-08-07T01:52:35;1.13;;;1.10;;
58992;SDS011;44782;0.000;0.000;2023-08-07T01:54:50;1.30;;;1.20;;
58992;SDS011;44782;0.000;0.000;2023-08-07T01:57:06;1.10;;;1.10;;
58992;SDS011;44782;0.000;0.000;2023-08-07T01:59:22;1.20;;;1.10;;
58992;SDS011;44782;0.000;0.000;2023-08-07T02:01:37;1.40;;;1.30;;
58992;SDS011;44782;0.000;0.000;2023-08-07T02:03:53;1.73;;;1.20;;
58992;SDS011;44782;0.000;0.000;2023-08-07T02:06:08;1.53;;;1.40;;
58992;SDS011;44782;0.000;0.000;2023-08-07T02:10:42;1.77;;;1.30;;
58992;SDS011;44782;0.000;0.000;2023-08-07T02:12:57;1.20;;;1.20;;
58992;SDS011;44782;0.000;0.000;2023-08-07T02:15:14;1.30;;;1.20;;
58992;SDS011;44782;0.000;0.000;2023-08-07T02:17:30;1.83;;;1.40;;
58992;SDS011;44782;0.000;0.000;2023-08-07T02:19:46;1.30;;;1.20;;
58992;SDS011;44782;0.000;0.000;2023-08-07T02:22:01;1.37;;;1.27;;
58992;SDS011;44782;0.000;0.000;2023-08-07T02:24:17;1.40;;;1.30;;
58992;SDS011;44782;0.000;0.000;2023-08-07T02:26:35;1.30;;;1.20;;
58992;SDS011;44782;0.000;0.000;2023-08-07T02:28:50;1.20;;;1.10;;
58992;SDS011;44782;0.000;0.000;2023-08-07T02:31:06;1.30;;;1.20;;
58992;SDS011;44782;0.000;0.000;2023-08-07T02:33:21;1.40;;;1.30;;
58992;SDS011;44782;0.000;0.000;2023-08-07T02:35:37;1.20;;;1.10;;
58992;SDS011;44782;0.000;0.000;2023-08-07T02:37:53;1.30;;;1.20;;
58992;SDS011;44782;0.000;0.000;2023-08-07T02:40:08;1.83;;;1.20;;
58992;SDS011;44782;0.000;0.000;2023-08-07T02:42:25;1.30;;;1.20;;
58992;SDS011;44782;0.000;0.000;2023-08-07T02:44:41;1.23;;;1.13;;
58992;SDS011;44782;0.000;0.000;2023-08-07T02:46:57;1.70;;;1.37;;
58992;SDS011;44782;0.000;0.000;2023-08-07T02:49:12;1.40;;;1.30;;
58992;SDS011;44782;0.000;0.000;2023-08-07T02:51:28;1.33;;;1.20;;
58992;SDS011;44782;0.000;0.000;2023-08-07T02:53:44;1.30;;;1.20;;
58992;SDS011;44782;0.000;0.000;2023-08-07T02:55:59;1.40;;;1.30;;
58992;SDS011;44782;0.000;0.000;2023-08-07T02:58:15;1.40;;;1.30;;
58992;SDS011;44782;0.000;0.000;2023-08-07T03:00:30;1.40;;;1.30;;
58992;SDS011;44782;0.000;0.000;2023-08-07T03:02:46;1.20;;;1.10;;
58992;SDS011;44782;0.000;0.000;2023-08-07T03:05:02;1.53;;;1.40;;
58992;SDS011;44782;0.000;0.000;2023-08-07T03:07:17;1.27;;;1.23;;
58992;SDS011;44782;0.000;0.000;2023-08-07T03:09:33;1.60;;;1.37;;
58992;SDS011;44782;0.000;0.000;2023-08-07T03:11:49;1.50;;;1.40;;
58992;SDS011;44782;0.000;0.000;2023-08-07T03:14:04;1.40;;;1.30;;
58992;SDS011;44782;0.000;0.000;2023-08-07T03:16:20;1.40;;;1.30;;
58992;SDS011;44782;0.000;0.000;2023-08-07T03:18:35;1.60;;;1.50;;
58992;SDS011;44782;0.000;0.000;2023-08-07T03:20:51;1.60;;;1.50;;
58992;SDS011;44782;0.000;0.000;2023-08-07T03:23:07;1.40;;;1.30;;
58992;SDS011;44782;0.000;0.000;2023-08-07T03:25:22;1.40;;;1.30;;
58992;SDS011;44782;0.000;0.000;2023-08-07T03:27:38;1.50;;;1.40;;
58992;SDS011;44782;0.000;0.000;2023-08-07T03:29:53;1.40;;;1.30;;
58992;SDS011;44782;0.000;0.000;2023-08-07T03:32:09;1.60;;;1.50;;
58992;SDS011;44782;0.000;0.000;2023-08-07T03:34:25;1.88;;;1.60;;
58992;SDS011;44782;0.000;0.000;2023-08-07T03:36:40;1.40;;;1.30;;
58992;SDS011;44782;0.000;0.000;2023-08-07T03:38:56;1.92;;;1.40;;
58992;SDS011;44782;0.000;0.000;2023-08-07T03:41:12;1.30;;;1.20;;
58992;SDS011;44782;0.000;0.000;2023-08-07T03:43:27;1.40;;;1.30;;
58992;SDS011;44782;0.000;0.000;2023-08-07T03:45:43;1.50;;;1.40;;
58992;SDS011;44782;0.000;0.000;2023-08-07T03:47:58;1.60;;;1.50;;
58992;SDS011;44782;0.000;0.000;2023-08-07T03:50:14;1.50;;;1.40;;
58992;SDS011;44782;0.000;0.000;2023-08-07T03:52:30;1.40;;;1.30;;
58992;SDS011;44782;0.000;0.000;2023-08-07T03:54:45;1.50;;;1.40;;
58992;SDS011;44782;0.000;0.000;2023-08-07T03:57:01;1.33;;;1.23;;
58992;SDS011;44782;0.000;0.000;2023-08-07T03:59:17;1.40;;;1.30;;
58992;SDS011;44782;0.000;0.000;2023-08-07T04:01:33;1.53;;;1.40;;
58992;SDS011;44782;0.000;0.000;2023-08-07T04:03:48;1.53;;;1.40;;
58992;SDS011;44782;0.000;0.000;2023-08-07T04:06:04;1.63;;;1.52;;
58992;SDS011;44782;0.000;0.000;2023-08-07T04:08:21;1.30;;;1.20;;
58992;SDS011;44782;0.000;0.000;2023-08-07T04:10:37;1.70;;;1.30;;
58992;SDS011;44782;0.000;0.000;2023-08-07T04:12:52;1.73;;;1.42;;
58992;SDS011;44782;0.000;0.000;2023-08-07T04:15:08;1.70;;;1.60;;
58992;SDS011;44782;0.000;0.000;2023-08-07T04:17:25;1.30;;;1.20;;
58992;SDS011;44782;0.000;0.000;2023-08-07T04:19:41;1.30;;;1.20;;
58992;SDS011;44782;0.000;0.000;2023-08-07T04:21:57;1.33;;;1.23;;
58992;SDS011;44782;0.000;0.000;2023-08-07T04:24:12;1.60;;;1.50;;
58992;SDS011;44782;0.000;0.000;2023-08-07T04:26:28;2.72;;;1.50;;
58992;SDS011;44782;0.000;0.000;2023-08-07T04:28:44;1.60;;;1.50;;
58992;SDS011;44782;0.000;0.000;2023-08-07T04:30:59;1.37;;;1.27;;
58992;SDS011;44782;0.000;0.000;2023-08-07T04:33:15;1.50;;;1.40;;
58992;SDS011;44782;0.000;0.000;2023-08-07T04:35:31;1.60;;;1.50;;
58992;SDS011;44782;0.000;0.000;2023-08-07T04:37:46;1.30;;;1.20;;
58992;SDS011;44782;0.000;0.000;2023-08-07T04:40:02;1.23;;;1.20;;
58992;SDS011;44782;0.000;0.000;2023-08-07T04:42:18;1.52;;;1.42;;
58992;SDS011;44782;0.000;0.000;2023-08-07T04:44:33;2.07;;;1.53;;
58992;SDS011;44782;0.000;0.000;2023-08-07T04:46:49;1.80;;;1.70;;
58992;SDS011;44782;0.000;0.000;2023-08-07T04:49:05;1.40;;;1.30;;
58992;SDS011;44782;0.000;0.000;2023-08-07T04:51:21;1.60;;;1.50;;
58992;SDS011;44782;0.000;0.000;2023-08-07T04:53:37;1.40;;;1.30;;
58992;SDS011;44782;0.000;0.000;2023-08-07T04:55:52;1.43;;;1.33;;
58992;SDS011;44782;0.000;0.000;2023-08-07T04:58:08;1.60;;;1.50;;
58992;SDS011;44782;0.000;0.000;2023-08-07T05:00:24;2.22;;;1.58;;
58992;SDS011;44782;0.000;0.000;2023-08-07T05:02:40;1.40;;;1.30;;
58992;SDS011;44782;0.000;0.000;2023-08-07T05:04:55;1.30;;;1.20;;
58992;SDS011;44782;0.000;0.000;2023-08-07T05:07:11;1.50;;;1.40;;
58992;SDS011;44782;0.000;0.000;2023-08-07T05:09:27;1.60;;;1.50;;
58992;SDS011;44782;0.000;0.000;2023-08-07T05:11:42;1.40;;;1.30;;
58992;SDS011;44782;0.000;0.000;2023-08-07T05:13:58;1.50;;;1.40;;
58992;SDS011;44782;0.000;0.000;2023-08-07T05:16:14;1.60;;;1.50;;
58992;SDS011;44782;0.000;0.000;2023-08-07T05:18:30;1.90;;;1.67;;
58992;SDS011;44782;0.000;0.000;2023-08-07T05:20:46;1.43;;;1.33;;
58992;SDS011;44782;0.000;0.000;2023-08-07T05:23:02;1.60;;;1.50;;
58992;SDS011;44782;0.000;0.000;2023-08-07T05:25:18;1.50;;;1.40;;
58992;SDS011;44782;0.000;0.000;2023-08-07T05:27:33;1.50;;;1.40;;
58992;SDS011;44782;0.000;0.000;2023-08-07T05:29:49;2.37;;;1.50;;
58992;SDS011;44782;0.000;0.000;2023-08-07T05:32:05;2.17;;;1.57;;
58992;SDS011;44782;0.000;0.000;2023-08-07T05:34:21;1.40;;;1.30;;
58992;SDS011;44782;0.000;0.000;2023-08-07T05:36:37;1.50;;;1.40;;
58992;SDS011;44782;0.000;0.000;2023-08-07T05:38:54;1.70;;;1.60;;
58992;SDS011;44782;0.000;0.000;2023-08-07T05:41:09;1.60;;;1.50;;
58992;SDS011;44782;0.000;0.000;2023-08-07T05:43:28;1.67;;;1.57;;
58992;SDS011;44782;0.000;0.000;2023-08-07T05:45:44;1.70;;;1.50;;
58992;SDS011;44782;0.000;0.000;2023-08-07T05:48:01;1.60;;;1.50;;
58992;SDS011;44782;0.000;0.000;2023-08-07T05:50:16;1.93;;;1.50;;
58992;SDS011;44782;0.000;0.000;2023-08-07T05:52:32;2.40;;;1.40;;
58992;SDS011;44782;0.000;0.000;2023-08-07T05:54:48;1.63;;;1.43;;
58992;SDS011;44782;0.000;0.000;2023-08-07T05:57:03;1.60;;;1.50;;
58992;SDS011;44782;0.000;0.000;2023-08-07T05:59:19;1.70;;;1.60;;
58992;SDS011;44782;0.000;0.000;2023-08-07T06:01:35;1.73;;;1.63;;
58992;SDS011;44782;0.000;0.000;2023-08-07T06:03:51;1.67;;;1.50;;
58992;SDS011;44782;0.000;0.000;2023-08-07T06:06:07;1.40;;;1.30;;
58992;SDS011;44782;0.000;0.000;2023-08-07T06:08:23;1.77;;;1.60;;
58992;SDS011;44782;0.000;0.000;2023-08-07T06:10:38;1.70;;;1.60;;
58992;SDS011;44782;0.000;0.000;2023-08-07T06:12:54;1.70;;;1.60;;
58992;SDS011;44782;0.000;0.000;2023-08-07T06:15:10;1.60;;;1.50;;
58992;SDS011;44782;0.000;0.000;2023-08-07T06:17:25;2.63;;;1.60;;
58992;SDS011;44782;0.000;0.000;2023-08-07T06:19:41;2.03;;;1.70;;
58992;SDS011;44782;0.000;0.000;2023-08-07T06:21:57;1.80;;;1.70;;
58992;SDS011;44782;0.000;0.000;2023-08-07T06:24:12;1.93;;;1.73;;
58992;SDS011;44782;0.000;0.000;2023-08-07T06:26:28;1.80;;;1.70;;
58992;SDS011;44782;0.000;0.000;2023-08-07T06:28:44;2.07;;;1.87;;
58992;SDS011;44782;0.000;0.000;2023-08-07T06:31:03;1.80;;;1.70;;
58992;SDS011;44782;0.000;0.000;2023-08-07T06:33:19;2.03;;;1.83;;
58992;SDS011;44782;0.000;0.000;2023-08-07T06:35:38;2.40;;;1.73;;
58992;SDS011;44782;0.000;0.000;2023-08-07T06:37:54;1.83;;;1.73;;
58992;SDS011;44782;0.000;0.000;2023-08-07T06:40:10;2.23;;;1.80;;
58992;SDS011;44782;0.000;0.000;2023-08-07T06:42:26;1.97;;;1.80;;
58992;SDS011;44782;0.000;0.000;2023-08-07T06:44:42;1.80;;;1.70;;
58992;SDS011;44782;0.000;0.000;2023-08-07T06:46:57;1.90;;;1.80;;
58992;SDS011;44782;0.000;0.000;2023-08-07T06:49:13;2.20;;;2.00;;
58992;SDS011;44782;0.000;0.000;2023-08-07T06:51:28;2.10;;;1.90;;
58992;SDS011;44782;0.000;0.000;2023-08-07T06:53:44;2.10;;;1.90;;
58992;SDS011;44782;0.000;0.000;2023-08-07T06:56:00;2.13;;;1.83;;
58992;SDS011;44782;0.000;0.000;2023-08-07T06:58:15;2.17;;;2.00;;
58992;SDS011;44782;0.000;0.000;2023-08-07T07:00:31;2.10;;;1.90;;
58992;SDS011;44782;0.000;0.000;2023-08-07T07:02:48;1.80;;;1.70;;
58992;SDS011;44782;0.000;0.000;2023-08-07T07:05:04;2.30;;;2.07;;
58992;SDS011;44782;0.000;0.000;2023-08-07T07:07:20;2.07;;;1.90;;
58992;SDS011;44782;0.000;0.000;2023-08-07T07:09:36;2.27;;;2.07;;
58992;SDS011;44782;0.000;0.000;2023-08-07T07:11:51;2.07;;;1.87;;
58992;SDS011;44782;0.000;0.000;2023-08-07T07:14:07;2.30;;;1.80;;
58992;SDS011;44782;0.000;0.000;2023-08-07T07:16:23;2.17;;;2.00;;
58992;SDS011;44782;0.000;0.000;2023-08-07T07:18:39;2.30;;;2.10;;
58992;SDS011;44782;0.000;0.000;2023-08-07T07:20:58;1.87;;;1.70;;
58992;SDS011;44782;0.000;0.000;2023-08-07T07:23:15;2.10;;;1.90;;
58992;SDS011;44782;0.000;0.000;2023-08-07T07:25:30;1.90;;;1.70;;
58992;SDS011;44782;0.000;0.000;2023-08-07T07:27:46;1.93;;;1.73;;
58992;SDS011;44782;0.000;0.000;2023-08-07T07:30:02;2.10;;;1.90;;
58992;SDS011;44782;0.000;0.000;2023-08-07T07:32:18;1.97;;;1.80;;
58992;SDS011;44782;0.000;0.000;2023-08-07T07:34:33;2.00;;;1.80;;
58992;SDS011;44782;0.000;0.000;2023-08-07T07:36:49;1.90;;;1.80;;
58992;SDS011;44782;0.000;0.000;2023-08-07T07:39:05;1.90;;;1.80;;
58992;SDS011;44782;0.000;0.000;2023-08-07T07:41:22;1.90;;;1.80;;
58992;SDS011;44782;0.000;0.000;2023-08-07T07:43:38;1.90;;;1.80;;
58992;SDS011;44782;0.000;0.000;2023-08-07T07:45:53;1.93;;;1.80;;
58992;SDS011;44782;0.000;0.000;2023-08-07T07:48:09;1.93;;;1.83;;
58992;SDS011;44782;0.000;0.000;2023-08-07T07:50:25;2.23;;;1.83;;
58992;SDS011;44782;0.000;0.000;2023-08-07T07:52:40;2.10;;;1.90;;
58992;SDS011;44782;0.000;0.000;2023-08-07T07:54:56;2.00;;;1.90;;
58992;SDS011;44782;0.000;0.000;2023-08-07T07:57:12;2.10;;;1.90;;
58992;SDS011;44782;0.000;0.000;2023-08-07T07:59:27;2.23;;;1.90;;
58992;SDS011;44782;0.000;0.000;2023-08-07T08:01:43;1.90;;;1.80;;
58992;SDS011;44782;0.000;0.000;2023-08-07T08:03:59;2.10;;;1.85;;
58992;SDS011;44782;0.000;0.000;2023-08-07T08:06:14;1.70;;;1.60;;
58992;SDS011;44782;0.000;0.000;2023-08-07T08:08:30;1.83;;;1.70;;
58992;SDS011;44782;0.000;0.000;2023-08-07T08:10:46;1.70;;;1.60;;
58992;SDS011;44782;0.000;0.000;2023-08-07T08:13:02;2.00;;;1.80;;
58992;SDS011;44782;0.000;0.000;2023-08-07T08:15:18;1.73;;;1.63;;
58992;SDS011;44782;0.000;0.000;2023-08-07T08:17:34;2.00;;;1.80;;
58992;SDS011;44782;0.000;0.000;2023-08-07T08:19:50;1.70;;;1.60;;
58992;SDS011;44782;0.000;0.000;2023-08-07T08:22:05;1.80;;;1.70;;
58992;SDS011;44782;0.000;0.000;2023-08-07T08:24:21;1.80;;;1.70;;
58992;SDS011;44782;0.000;0.000;2023-08-07T08:26:37;2.03;;;1.87;;
58992;SDS011;44782;0.000;0.000;2023-08-07T08:28:52;2.10;;;1.77;;
58992;SDS011;44782;0.000;0.000;2023-08-07T08:31:08;2.20;;;2.00;;
58992;SDS011;44782;0.000;0.000;2023-08-07T08:33:24;1.92;;;1.83;;
58992;SDS011;44782;0.000;0.000;2023-08-07T08:35:40;2.00;;;1.80;;
58992;SDS011;44782;0.000;0.000;2023-08-07T08:37:56;1.70;;;1.60;;
58992;SDS011;44782;0.000;0.000;2023-08-07T08:40:11;1.67;;;1.58;;
58992;SDS011;44782;0.000;0.000;2023-08-07T08:42:31;1.90;;;1.80;;
58992;SDS011;44782;0.000;0.000;2023-08-07T08:44:55;1.83;;;1.70;;
58992;SDS011;44782;0.000;0.000;2023-08-07T08:47:11;1.80;;;1.63;;
58992;SDS011;44782;0.000;0.000;2023-08-07T08:49:29;1.70;;;1.60;;
58992;SDS011;44782;0.000;0.000;2023-08-07T08:51:47;1.73;;;1.63;;
58992;SDS011;44782;0.000;0.000;2023-08-07T08:54:04;1.60;;;1.50;;
58992;SDS011;44782;0.000;0.000;2023-08-07T08:56:21;1.70;;;1.60;;
58992;SDS011;44782;0.000;0.000;2023-08-07T08:58:38;1.63;;;1.53;;
58992;SDS011;44782;0.000;0.000;2023-08-07T09:00:54;1.80;;;1.70;;
58992;SDS011;44782;0.000;0.000;2023-08-07T09:03:10;1.88;;;1.77;;
58992;SDS011;44782;0.000;0.000;2023-08-07T09:05:26;1.80;;;1.70;;
58992;SDS011;44782;0.000;0.000;2023-08-07T09:07:42;1.90;;;1.80;;
58992;SDS011;44782;0.000;0.000;2023-08-07T09:10:02;1.67;;;1.57;;
58992;SDS011;44782;0.000;0.000;2023-08-07T09:12:23;1.80;;;1.70;;
58992;SDS011;44782;0.000;0.000;2023-08-07T09:14:41;1.57;;;1.47;;
58992;SDS011;44782;0.000;0.000;2023-08-07T09:17:00;2.17;;;1.60;;
58992;SDS011;44782;0.000;0.000;2023-08-07T09:19:16;1.90;;;1.80;;
58992;SDS011;44782;0.000;0.000;2023-08-07T09:21:32;1.50;;;1.40;;
58992;SDS011;44782;0.000;0.000;2023-08-07T09:23:48;1.70;;;1.60;;
58992;SDS011;44782;0.000;0.000;2023-08-07T09:26:04;1.63;;;1.53;;
58992;SDS011;44782;0.000;0.000;2023-08-07T09:28:20;1.60;;;1.50;;
58992;SDS011;44782;0.000;0.000;2023-08-07T09:30:36;1.73;;;1.63;;
58992;SDS011;44782;0.000;0.000;2023-08-07T09:32:52;1.80;;;1.70;;
58992;SDS011;44782;0.000;0.000;2023-08-07T09:35:08;1.70;;;1.60;;
58992;SDS011;44782;0.000;0.000;2023-08-07T09:37:25;1.90;;;1.80;;
58992;SDS011;44782;0.000;0.000;2023-08-07T09:39:41;1.70;;;1.60;;
58992;SDS011;44782;0.000;0.000;2023-08-07T09:41:56;1.73;;;1.63;;
58992;SDS011;44782;0.000;0.000;2023-08-07T09:44:12;2.27;;;1.87;;
58992;SDS011;44782;0.000;0.000;2023-08-07T09:46:28;1.67;;;1.57;;
58992;SDS011;44782;0.000;0.000;2023-08-07T09:48:43;1.97;;;1.87;;
58992;SDS011;44782;0.000;0.000;2023-08-07T09:51:00;1.80;;;1.70;;
58992;SDS011;44782;0.000;0.000;2023-08-07T09:53:24;1.60;;;1.50;;
58992;SDS011;44782;0.000;0.000;2023-08-07T09:55:41;1.70;;;1.60;;
58992;SDS011;44782;0.000;0.000;2023-08-07T09:57:57;1.73;;;1.63;;
58992;SDS011;44782;0.000;0.000;2023-08-07T10:00:14;1.60;;;1.50;;
58992;SDS011;44782;0.000;0.000;2023-08-07T10:02:31;1.70;;;1.60;;
58992;SDS011;44782;0.000;0.000;2023-08-07T10:04:46;2.00;;;1.90;;
58992;SDS011;44782;0.000;0.000;2023-08-07T10:07:03;1.50;;;1.40;;
58992;SDS011;44782;0.000;0.000;2023-08-07T10:09:19;1.70;;;1.60;;
58992;SDS011;44782;0.000;0.000;2023-08-07T10:11:37;1.70;;;1.60;;
58992;SDS011;44782;0.000;0.000;2023-08-07T10:13:55;1.63;;;1.53;;
58992;SDS011;44782;0.000;0.000;2023-08-07T10:16:12;1.70;;;1.60;;
58992;SDS011;44782;0.000;0.000;2023-08-07T10:18:28;1.47;;;1.37;;
58992;SDS011;44782;0.000;0.000;2023-08-07T10:20:44;1.63;;;1.53;;
58992;SDS011;44782;0.000;0.000;2023-08-07T10:23:04;1.53;;;1.43;;
58992;SDS011;44782;0.000;0.000;2023-08-07T10:25:23;1.57;;;1.47;;
58992;SDS011;44782;0.000;0.000;2023-08-07T10:27:41;1.60;;;1.50;;
58992;SDS011;44782;0.000;0.000;2023-08-07T10:29:58;1.63;;;1.40;;
58992;SDS011;44782;0.000;0.000;2023-08-07T10:32:17;1.67;;;1.57;;
58992;SDS011;44782;0.000;0.000;2023-08-07T10:34:35;2.50;;;1.70;;
58992;SDS011;44782;0.000;0.000;2023-08-07T10:36:52;1.60;;;1.50;;
58992;SDS011;44782;0.000;0.000;2023-08-07T10:39:11;1.90;;;1.70;;
58992;SDS011;44782;0.000;0.000;2023-08-07T10:41:27;1.60;;;1.50;;
58992;SDS011;44782;0.000;0.000;2023-08-07T10:44:02;1.70;;;1.60;;
58992;SDS011;44782;0.000;0.000;2023-08-07T10:46:21;1.50;;;1.40;;
58992;SDS011;44782;0.000;0.000;2023-08-07T10:48:47;1.60;;;1.50;;
58992;SDS011;44782;0.000;0.000;2023-08-07T10:51:11;1.50;;;1.40;;
58992;SDS011;44782;0.000;0.000;2023-08-07T10:53:33;1.60;;;1.50;;
58992;SDS011;44782;0.000;0.000;2023-08-07T10:55:57;1.50;;;1.40;;
58992;SDS011;44782;0.000;0.000;2023-08-07T10:58:32;1.60;;;1.50;;
58992;SDS011;44782;0.000;0.000;2023-08-07T11:03:39;1.40;;;1.30;;
58992;SDS011;44782;0.000;0.000;2023-08-07T11:05:57;1.60;;;1.50;;
58992;SDS011;44782;0.000;0.000;2023-08-07T11:08:14;1.50;;;1.40;;
58992;SDS011;44782;0.000;0.000;2023-08-07T11:10:29;1.70;;;1.60;;
58992;SDS011;44782;0.000;0.000;2023-08-07T11:12:45;1.40;;;1.30;;
58992;SDS011;44782;0.000;0.000;2023-08-07T11:15:01;1.30;;;1.20;;
58992;SDS011;44782;0.000;0.000;2023-08-07T11:17:16;1.50;;;1.40;;
58992;SDS011;44782;0.000;0.000;2023-08-07T11:19:32;1.80;;;1.70;;
58992;SDS011;44782;0.000;0.000;2023-08-07T11:21:48;1.37;;;1.27;;
58992;SDS011;44782;0.000;0.000;2023-08-07T11:24:05;1.50;;;1.40;;
58992;SDS011;44782;0.000;0.000;2023-08-07T11:26:21;1.40;;;1.30;;
58992;SDS011;44782;0.000;0.000;2023-08-07T11:28:36;1.50;;;1.40;;
58992;SDS011;44782;0.000;0.000;2023-08-07T11:30:52;1.40;;;1.30;;
58992;SDS011;44782;0.000;0.000;2023-08-07T11:33:08;1.40;;;1.30;;
58992;SDS011;44782;0.000;0.000;2023-08-07T11:35:25;1.40;;;1.30;;
58992;SDS011;44782;0.000;0.000;2023-08-07T11:37:47;1.43;;;1.33;;
58992;SDS011;44782;0.000;0.000;2023-08-07T11:40:03;1.38;;;1.27;;
58992;SDS011;44782;0.000;0.000;2023-08-07T11:42:20;1.70;;;1.60;;
58992;SDS011;44782;0.000;0.000;2023-08-07T11:44:37;1.48;;;1.38;;
58992;SDS011;44782;0.000;0.000;2023-08-07T11:46:52;1.42;;;1.35;;
58992;SDS011;44782;0.000;0.000;2023-08-07T11:49:08;1.60;;;1.50;;
58992;SDS011;44782;0.000;0.000;2023-08-07T11:51:25;2.00;;;1.52;;
58992;SDS011;44782;0.000;0.000;2023-08-07T11:53:41;1.27;;;1.27;;
58992;SDS011;44782;0.000;0.000;2023-08-07T11:55:57;1.30;;;1.20;;
58992;SDS011;44782;0.000;0.000;2023-08-07T11:58:14;1.52;;;1.42;;
58992;SDS011;44782;0.000;0.000;2023-08-07T12:00:31;1.42;;;1.20;;
58992;SDS011;44782;0.000;0.000;2023-08-07T12:02:46;1.52;;;1.42;;
58992;SDS011;44782;0.000;0.000;2023-08-07T12:05:02;1.40;;;1.30;;
58992;SDS011;44782;0.000;0.000;2023-08-07T12:07:18;1.40;;;1.30;;
58992;SDS011;44782;0.000;0.000;2023-08-07T12:09:34;1.53;;;1.43;;
58992;SDS011;44782;0.000;0.000;2023-08-07T12:11:54;1.55;;;1.45;;
58992;SDS011;44782;0.000;0.000;2023-08-07T12:14:14;1.38;;;1.27;;
58992;SDS011;44782;0.000;0.000;2023-08-07T12:16:32;1.45;;;1.35;;
58992;SDS011;44782;0.000;0.000;2023-08-07T12:18:50;1.40;;;1.30;;
58992;SDS011;44782;0.000;0.000;2023-08-07T12:21:07;1.40;;;1.30;;
58992;SDS011;44782;0.000;0.000;2023-08-07T12:23:23;1.45;;;1.35;;
58992;SDS011;44782;0.000;0.000;2023-08-07T12:25:38;1.35;;;1.30;;
58992;SDS011;44782;0.000;0.000;2023-08-07T12:27:54;1.50;;;1.40;;
58992;SDS011;44782;0.000;0.000;2023-08-07T12:30:10;1.30;;;1.30;;
58992;SDS011;44782;0.000;0.000;2023-08-07T12:32:26;1.30;;;1.20;;
58992;SDS011;44782;0.000;0.000;2023-08-07T12:34:41;1.50;;;1.40;;
58992;SDS011;44782;0.000;0.000;2023-08-07T12:36:57;1.90;;;1.20;;
58992;SDS011;44782;0.000;0.000;2023-08-07T12:39:13;1.20;;;1.20;;
58992;SDS011;44782;0.000;0.000;2023-08-07T12:41:29;1.30;;;1.30;;
58992;SDS011;44782;0.000;0.000;2023-08-07T12:43:45;1.60;;;1.50;;
58992;SDS011;44782;0.000;0.000;2023-08-07T12:46:01;1.50;;;1.40;;
58992;SDS011;44782;0.000;0.000;2023-08-07T12:48:16;1.37;;;1.27;;
58992;SDS011;44782;0.000;0.000;2023-08-07T12:50:35;1.50;;;1.40;;
58992;SDS011;44782;0.000;0.000;2023-08-07T12:52:51;1.40;;;1.30;;
58992;SDS011;44782;0.000;0.000;2023-08-07T12:55:06;1.50;;;1.40;;
58992;SDS011;44782;0.000;0.000;2023-08-07T12:57:23;1.40;;;1.30;;
58992;SDS011;44782;0.000;0.000;2023-08-07T12:59:41;1.30;;;1.20;;
58992;SDS011;44782;0.000;0.000;2023-08-07T13:01:57;1.30;;;1.20;;
58992;SDS011;44782;0.000;0.000;2023-08-07T13:04:18;1.35;;;1.25;;
58992;SDS011;44782;0.000;0.000;2023-08-07T13:06:38;1.70;;;1.60;;
58992;SDS011;44782;0.000;0.000;2023-08-07T13:08:57;2.70;;;1.60;;
58992;SDS011;44782;0.000;0.000;2023-08-07T13:11:15;2.78;;;1.85;;
58992;SDS011;44782;0.000;0.000;2023-08-07T13:13:39;5.15;;;2.20;;
58992;SDS011;44782;0.000;0.000;2023-08-07T13:16:04;3.90;;;2.10;;
58992;SDS011;44782;0.000;0.000;2023-08-07T13:18:33;1.67;;;1.50;;
58992;SDS011;44782;0.000;0.000;2023-08-07T13:25:52;1.48;;;1.38;;
58992;SDS011;44782;0.000;0.000;2023-08-07T13:28:43;1.70;;;1.60;;
58992;SDS011;44782;0.000;0.000;2023-08-07T13:34:30;1.75;;;1.65;;
58992;SDS011;44782;0.000;0.000;2023-08-07T13:42:14;1.40;;;1.30;;
58992;SDS011;44782;0.000;0.000;2023-08-07T13:47:38;1.50;;;1.30;;
58992;SDS011;44782;0.000;0.000;2023-08-07T13:49:53;1.50;;;1.40;;
58992;SDS011;44782;0.000;0.000;2023-08-07T13:52:09;1.30;;;1.20;;
58992;SDS011;44782;0.000;0.000;2023-08-07T13:54:25;1.80;;;1.37;;
58992;SDS011;44782;0.000;0.000;2023-08-07T13:56:40;1.65;;;1.40;;
58992;SDS011;44782;0.000;0.000;2023-08-07T13:58:56;1.35;;;1.25;;
58992;SDS011;44782;0.000;0.000;2023-08-07T14:01:12;1.40;;;1.30;;
58992;SDS011;44782;0.000;0.000;2023-08-07T14:03:27;1.48;;;1.38;;
58992;SDS011;44782;0.000;0.000;2023-08-07T14:05:43;1.63;;;1.48;;
58992;SDS011;44782;0.000;0.000;2023-08-07T14:07:58;1.48;;;1.38;;
58992;SDS011;44782;0.000;0.000;2023-08-07T14:10:14;1.67;;;1.58;;
58992;SDS011;44782;0.000;0.000;2023-08-07T14:12:30;1.58;;;1.40;;
58992;SDS011;44782;0.000;0.000;2023-08-07T14:14:45;1.50;;;1.40;;
58992;SDS011;44782;0.000;0.000;2023-08-07T14:17:01;1.60;;;1.50;;
58992;SDS011;44782;0.000;0.000;2023-08-07T14:19:17;1.75;;;1.50;;
58992;SDS011;44782;0.000;0.000;2023-08-07T14:21:32;1.63;;;1.50;;